Terry, MT

5:31 AM MDT on October 23, 2014 (GMT -0600)
Baker Municipal | Change Station
CLOSE
Current Station
Airport
Location: Baker,
Elevation: 2972 ft
Nearby Weather Stations

Elev 2972 ft 46.35 °N, 104.26 °W | Updated 40 minutes ago

Clear
Clear
44 °F
Feels Like 38 °F
N
13
Wind Variable Wind from WSW

Today
High -- | Low -- °F
--% Chance of Precip.
Yesterday
High -- | Low -- °F
Precip. -- in
7:30 AM 5:59 PM
Waning Crescent, 0% visible
Pressure 29.92 in
Visibility 10.0 miles
Clouds Clear
Windchill 38 °F
Dew Point 28 °F
Humidity 53%
Rainfall 0.00 in
Snow Depth Not available.
UV 0 out of 12
Pollen 1.80 out of 12
Air Quality Not available.
Flu Activity No Activity
METAR KBHK 231051Z AUTO 25011KT 10SM CLR 07/M02 A2992 RMK AO2 SLP130 T00671022

More Conditions Fewer Conditions

Pressure 29.92 in
Visibility 10.0 miles
Clouds Clear
Windchill 38 °F
Dew Point 28 °F
Humidity 53%
Rainfall 0.00 in
Snow Depth Not available.
UV 0 out of 12
Pollen 1.80 out of 12
Air Quality Not available.
Flu Activity No Activity
METAR KBHK 231051Z AUTO 25011KT 10SM CLR 07/M02 A2992 RMK AO2 SLP130 T00671022

More Conditions Fewer Conditions

10-Day Weather Forecast

Almanac

Astronomy

Oct. 23, 2014 Rise Set
Actual Time 7:30 AM MDT 5:59 PM MDT
Civil Twilight 6:59 AM MDT 6:30 PM MDT
Nautical Twilight 6:24 AM MDT 7:06 PM MDT
Astronomical Twilight 5:48 AM MDT 7:41 PM MDT
Moon 7:11 AM MDT 6:02 PM MDT
Length of Visible Light 11h 31m
Length of Day
10h 29m
Tomorrow will be 3m 9s shorter.
Waning Crescent, 0% of the Moon is Illuminated
Today
Waning Crescent
Oct 23
New
Oct 30
First Quarter
Nov 6
Full
Nov 14
Last Quarter

Today's Extremes

State Highs State Lows

Community

WunderPhotos

Upload Photos

1,764,209 photos uploaded!

Nearby

Snow Depth

Station Depth Elevation
Crystal Lake 1 in 6050 ft
Burnt Mountain 1 in 5880 ft
Daisy Peak 0 in 7600 ft
Placer Basin 0 in 8830 ft
South Fork Shields 1 in 8100 ft

Earthquake Activity

City Distance Mag. Time & Date
No recent earthquake activity has been reported nearby.
Minimum magnitude displayed is 2.5.

Coastal Water Temperatures

Place Temperature
No Stations Reporting

Nearby Weather Stations